sensor_id;sensor_type;location;lat;lon;timestamp;pressure;altitude;pressure_sealevel;temperature;humidity
5780;BME280;2916;49.798;10.022;2023-06-19T00:00:52;149826.47;;;22.58;49.79
5780;BME280;2916;49.798;10.022;2023-06-19T00:03:19;149822.72;;;22.56;49.03
5780;BME280;2916;49.798;10.022;2023-06-19T00:05:47;149825.22;;;22.57;48.53
5780;BME280;2916;49.798;10.022;2023-06-19T00:08:14;149808.94;;;22.50;48.65
5780;BME280;2916;49.798;10.022;2023-06-19T00:10:42;149808.94;;;22.50;49.41
5780;BME280;2916;49.798;10.022;2023-06-19T00:13:09;149803.97;;;22.48;49.18
5780;BME280;2916;49.798;10.022;2023-06-19T00:15:37;149795.22;;;22.45;47.61
5780;BME280;2916;49.798;10.022;2023-06-19T00:18:04;149801.44;;;22.47;46.25
5780;BME280;2916;49.798;10.022;2023-06-19T00:20:33;149773.97;;;22.36;46.13
5780;BME280;2916;49.798;10.022;2023-06-19T00:23:01;149818.94;;;22.54;46.56
5780;BME280;2916;49.798;10.022;2023-06-19T00:25:28;149800.19;;;22.47;46.68
5780;BME280;2916;49.798;10.022;2023-06-19T00:27:56;149788.94;;;22.42;46.66
5780;BME280;2916;49.798;10.022;2023-06-19T00:30:23;149748.94;;;22.26;47.42
5780;BME280;2916;49.798;10.022;2023-06-19T00:32:51;149728.94;;;22.18;47.93
5780;BME280;2916;49.798;10.022;2023-06-19T00:35:19;149727.69;;;22.17;48.00
5780;BME280;2916;49.798;10.022;2023-06-19T00:37:47;149726.44;;;22.17;47.57
5780;BME280;2916;49.798;10.022;2023-06-19T00:40:26;149747.69;;;22.25;46.76
5780;BME280;2916;49.798;10.022;2023-06-19T00:42:53;149692.63;;;22.03;46.58
5780;BME280;2916;49.798;10.022;2023-06-19T00:45:22;149666.34;;;21.92;47.08
5780;BME280;2916;49.798;10.022;2023-06-19T00:47:50;149762.66;;;22.32;47.95
5780;BME280;2916;49.798;10.022;2023-06-19T00:50:18;149761.44;;;22.31;47.84
5780;BME280;2916;49.798;10.022;2023-06-19T00:52:45;149688.88;;;22.01;48.82
5780;BME280;2916;49.798;10.022;2023-06-19T00:55:15;149712.63;;;22.11;48.98
5780;BME280;2916;49.798;10.022;2023-06-19T00:57:43;149696.34;;;22.04;49.55
5780;BME280;2916;49.798;10.022;2023-06-19T01:00:12;149681.38;;;21.98;49.90
5780;BME280;2916;49.798;10.022;2023-06-19T01:02:41;149661.38;;;21.90;49.96
5780;BME280;2916;49.798;10.022;2023-06-19T01:05:08;149587.63;;;21.60;49.93
5780;BME280;2916;49.798;10.022;2023-06-19T01:07:47;149631.38;;;21.78;49.71
5780;BME280;2916;49.798;10.022;2023-06-19T01:10:21;149623.88;;;21.75;50.18
5780;BME280;2916;49.798;10.022;2023-06-19T01:12:56;149618.84;;;21.73;49.79
5780;BME280;2916;49.798;10.022;2023-06-19T01:15:26;149628.84;;;21.77;50.54
5780;BME280;2916;49.798;10.022;2023-06-19T01:17:56;149637.59;;;21.80;48.99
5780;BME280;2916;49.798;10.022;2023-06-19T01:20:25;149637.59;;;21.80;49.07
5780;BME280;2916;49.798;10.022;2023-06-19T01:22:54;149606.38;;;21.68;49.49
5780;BME280;2916;49.798;10.022;2023-06-19T01:25:23;149618.84;;;21.73;49.42
5780;BME280;2916;49.798;10.022;2023-06-19T01:27:51;149592.66;;;21.62;48.68
5780;BME280;2916;49.798;10.022;2023-06-19T01:30:19;149585.13;;;21.59;49.64
5780;BME280;2916;49.798;10.022;2023-06-19T01:32:57;149563.91;;;21.50;49.41
5780;BME280;2916;49.798;10.022;2023-06-19T01:35:31;149562.66;;;21.50;49.57
5780;BME280;2916;49.798;10.022;2023-06-19T01:38:01;149438.91;;;20.99;50.08
5780;BME280;2916;49.798;10.022;2023-06-19T01:40:30;149511.34;;;21.29;50.80
5780;BME280;2916;49.798;10.022;2023-06-19T01:42:59;149507.59;;;21.27;51.47
5780;BME280;2916;49.798;10.022;2023-06-19T01:45:29;149496.38;;;21.23;51.57
5780;BME280;2916;49.798;10.022;2023-06-19T01:47:57;149375.16;;;20.73;52.66
5780;BME280;2916;49.798;10.022;2023-06-19T01:50:25;149457.63;;;21.07;51.71
5780;BME280;2916;49.798;10.022;2023-06-19T01:52:52;149422.63;;;20.93;52.49
5780;BME280;2916;49.798;10.022;2023-06-19T01:55:21;149411.41;;;20.88;51.62
5780;BME280;2916;49.798;10.022;2023-06-19T01:57:48;149411.41;;;20.88;51.42
5780;BME280;2916;49.798;10.022;2023-06-19T02:00:17;149393.91;;;20.81;51.28
5780;BME280;2916;49.798;10.022;2023-06-19T02:02:44;149378.91;;;20.75;51.52
5780;BME280;2916;49.798;10.022;2023-06-19T02:05:12;149363.94;;;20.69;51.74
5780;BME280;2916;49.798;10.022;2023-06-19T02:07:41;149343.94;;;20.61;52.12
5780;BME280;2916;49.798;10.022;2023-06-19T02:10:09;149337.69;;;20.58;52.77
5780;BME280;2916;49.798;10.022;2023-06-19T02:12:37;149312.69;;;20.48;52.51
5780;BME280;2916;49.798;10.022;2023-06-19T02:15:06;149282.66;;;20.35;53.16
5780;BME280;2916;49.798;10.022;2023-06-19T02:17:33;149256.47;;;20.25;53.86
5780;BME280;2916;49.798;10.022;2023-06-19T02:20:01;149241.47;;;20.19;53.47
5780;BME280;2916;49.798;10.022;2023-06-19T02:22:29;149251.47;;;20.23;53.75
5780;BME280;2916;49.798;10.022;2023-06-19T02:24:56;149256.47;;;20.25;53.64
5780;BME280;2916;49.798;10.022;2023-06-19T02:27:23;149253.94;;;20.24;53.45
5780;BME280;2916;49.798;10.022;2023-06-19T02:29:51;149250.22;;;20.22;53.34
5780;BME280;2916;49.798;10.022;2023-06-19T02:32:18;149237.75;;;20.17;53.23
5780;BME280;2916;49.798;10.022;2023-06-19T02:34:46;149243.97;;;20.20;53.40
5780;BME280;2916;49.798;10.022;2023-06-19T02:37:13;149233.97;;;20.16;53.30
5780;BME280;2916;49.798;10.022;2023-06-19T02:39:40;149211.50;;;20.06;53.52
5780;BME280;2916;49.798;10.022;2023-06-19T02:42:08;149216.53;;;20.08;53.15
5780;BME280;2916;49.798;10.022;2023-06-19T02:44:35;149220.25;;;20.10;53.38
5780;BME280;2916;49.798;10.022;2023-06-19T02:47:05;149211.50;;;20.06;53.47
5780;BME280;2916;49.798;10.022;2023-06-19T02:49:32;149204.00;;;20.03;52.99
5780;BME280;2916;49.798;10.022;2023-06-19T02:51:59;149129.09;;;19.73;55.56
5780;BME280;2916;49.798;10.022;2023-06-19T02:54:26;149174.03;;;19.91;53.89
5780;BME280;2916;49.798;10.022;2023-06-19T02:56:53;149181.53;;;19.94;54.00
5780;BME280;2916;49.798;10.022;2023-06-19T02:59:20;149191.53;;;19.98;53.91
5780;BME280;2916;49.798;10.022;2023-06-19T03:01:47;149201.53;;;20.02;53.75
5780;BME280;2916;49.798;10.022;2023-06-19T03:04:16;149211.50;;;20.06;53.76
5780;BME280;2916;49.798;10.022;2023-06-19T03:06:44;149221.50;;;20.10;53.36
5780;BME280;2916;49.798;10.022;2023-06-19T03:09:11;149253.94;;;20.24;53.08
5780;BME280;2916;49.798;10.022;2023-06-19T03:11:39;149286.44;;;20.37;53.06
5780;BME280;2916;49.798;10.022;2023-06-19T03:14:07;149318.94;;;20.50;52.74
5780;BME280;2916;49.798;10.022;2023-06-19T03:16:34;149336.44;;;20.57;53.19
5780;BME280;2916;49.798;10.022;2023-06-19T03:19:02;149346.44;;;20.62;53.53
5780;BME280;2916;49.798;10.022;2023-06-19T03:21:30;149357.66;;;20.66;53.87
5780;BME280;2916;49.798;10.022;2023-06-19T03:23:57;149321.44;;;20.51;53.94
5780;BME280;2916;49.798;10.022;2023-06-19T03:26:24;149348.91;;;20.63;53.99
5780;BME280;2916;49.798;10.022;2023-06-19T03:28:52;149343.94;;;20.61;54.64
5780;BME280;2916;49.798;10.022;2023-06-19T03:31:19;149346.44;;;20.62;55.23
5780;BME280;2916;49.798;10.022;2023-06-19T03:33:46;149331.47;;;20.55;56.40
5780;BME280;2916;49.798;10.022;2023-06-19T03:36:14;149338.94;;;20.58;56.72
5780;BME280;2916;49.798;10.022;2023-06-19T03:38:42;149323.97;;;20.52;57.71
5780;BME280;2916;49.798;10.022;2023-06-19T03:41:09;149321.44;;;20.51;58.27
5780;BME280;2916;49.798;10.022;2023-06-19T03:43:38;149328.94;;;20.54;58.79
5780;BME280;2916;49.798;10.022;2023-06-19T03:46:05;149320.19;;;20.51;59.06
5780;BME280;2916;49.798;10.022;2023-06-19T03:48:32;149331.47;;;20.55;59.46
5780;BME280;2916;49.798;10.022;2023-06-19T03:50:59;149338.94;;;20.58;59.83
5780;BME280;2916;49.798;10.022;2023-06-19T03:53:27;149330.19;;;20.55;60.23
5780;BME280;2916;49.798;10.022;2023-06-19T03:55:56;149341.47;;;20.59;60.45
5780;BME280;2916;49.798;10.022;2023-06-19T03:58:23;149341.47;;;20.59;60.23
5780;BME280;2916;49.798;10.022;2023-06-19T04:00:51;149326.44;;;20.53;61.10
5780;BME280;2916;49.798;10.022;2023-06-19T04:03:18;149346.44;;;20.62;61.15
5780;BME280;2916;49.798;10.022;2023-06-19T04:05:45;149341.47;;;20.59;61.57
5780;BME280;2916;49.798;10.022;2023-06-19T04:08:13;149345.19;;;20.61;61.25
5780;BME280;2916;49.798;10.022;2023-06-19T04:10:40;149348.91;;;20.63;62.00
5780;BME280;2916;49.798;10.022;2023-06-19T04:13:08;149335.19;;;20.57;62.12
5780;BME280;2916;49.798;10.022;2023-06-19T04:15:36;149363.94;;;20.69;62.03
5780;BME280;2916;49.798;10.022;2023-06-19T04:18:03;149363.94;;;20.69;62.54
5780;BME280;2916;49.798;10.022;2023-06-19T04:20:30;149373.91;;;20.73;62.06
5780;BME280;2916;49.798;10.022;2023-06-19T04:22:59;149361.44;;;20.68;62.21
5780;BME280;2916;49.798;10.022;2023-06-19T04:25:26;149381.44;;;20.76;62.06
5780;BME280;2916;49.798;10.022;2023-06-19T04:27:54;149385.16;;;20.77;62.57
5780;BME280;2916;49.798;10.022;2023-06-19T04:30:22;149368.91;;;20.71;62.35
5780;BME280;2916;49.798;10.022;2023-06-19T04:32:49;149377.66;;;20.74;62.29
5780;BME280;2916;49.798;10.022;2023-06-19T04:35:19;149401.41;;;20.84;62.07
5780;BME280;2916;49.798;10.022;2023-06-19T04:37:46;149418.91;;;20.91;61.97
5780;BME280;2916;49.798;10.022;2023-06-19T04:40:15;149422.63;;;20.93;62.38
5780;BME280;2916;49.798;10.022;2023-06-19T04:42:42;149416.38;;;20.90;62.39
5780;BME280;2916;49.798;10.022;2023-06-19T04:45:10;149436.34;;;20.98;61.83
5780;BME280;2916;49.798;10.022;2023-06-19T04:47:39;149416.38;;;20.90;62.05
5780;BME280;2916;49.798;10.022;2023-06-19T04:50:07;149443.88;;;21.01;62.65
5780;BME280;2916;49.798;10.022;2023-06-19T04:52:35;149432.63;;;20.97;62.37
5780;BME280;2916;49.798;10.022;2023-06-19T04:55:05;149441.38;;;21.00;62.06
5780;BME280;2916;49.798;10.022;2023-06-19T04:57:35;149450.13;;;21.04;61.55
5780;BME280;2916;49.798;10.022;2023-06-19T05:00:04;149460.13;;;21.08;62.63
5780;BME280;2916;49.798;10.022;2023-06-19T05:02:32;149451.38;;;21.04;62.01
5780;BME280;2916;49.798;10.022;2023-06-19T05:05:01;149446.34;;;21.02;62.23
5780;BME280;2916;49.798;10.022;2023-06-19T05:07:29;149456.38;;;21.06;62.18
5780;BME280;2916;49.798;10.022;2023-06-19T05:09:57;149451.38;;;21.04;62.24
5780;BME280;2916;49.798;10.022;2023-06-19T05:12:24;149458.88;;;21.07;62.05
5780;BME280;2916;49.798;10.022;2023-06-19T05:14:51;149466.38;;;21.11;62.36
5780;BME280;2916;49.798;10.022;2023-06-19T05:17:18;149451.38;;;21.04;62.54
5780;BME280;2916;49.798;10.022;2023-06-19T05:19:46;149471.38;;;21.13;62.18
5780;BME280;2916;49.798;10.022;2023-06-19T05:22:14;149481.34;;;21.17;61.53
5780;BME280;2916;49.798;10.022;2023-06-19T05:24:44;149406.38;;;20.86;62.38
5780;BME280;2916;49.798;10.022;2023-06-19T05:27:12;149480.09;;;21.16;62.29
5780;BME280;2916;49.798;10.022;2023-06-19T05:29:39;149453.88;;;21.05;62.00
5780;BME280;2916;49.798;10.022;2023-06-19T05:32:07;149498.84;;;21.24;61.99
5780;BME280;2916;49.798;10.022;2023-06-19T05:34:34;149511.34;;;21.29;61.64
5780;BME280;2916;49.798;10.022;2023-06-19T05:37:01;149502.59;;;21.25;61.71
5780;BME280;2916;49.798;10.022;2023-06-19T05:39:31;149503.81;;;21.26;62.19
5780;BME280;2916;49.798;10.022;2023-06-19T05:41:58;149513.88;;;21.30;62.48
5780;BME280;2916;49.798;10.022;2023-06-19T05:44:25;149515.13;;;21.30;63.01
5780;BME280;2916;49.798;10.022;2023-06-19T05:46:52;149515.13;;;21.30;62.99
5780;BME280;2916;49.798;10.022;2023-06-19T05:49:20;149516.38;;;21.31;62.94
5780;BME280;2916;49.798;10.022;2023-06-19T05:51:47;149566.38;;;21.51;63.36
5780;BME280;2916;49.798;10.022;2023-06-19T05:54:14;149583.88;;;21.59;61.98
5780;BME280;2916;49.798;10.022;2023-06-19T05:56:44;149596.38;;;21.64;63.52
5780;BME280;2916;49.798;10.022;2023-06-19T05:59:12;149615.13;;;21.71;63.42
5780;BME280;2916;49.798;10.022;2023-06-19T06:01:41;149641.38;;;21.82;63.03
5780;BME280;2916;49.798;10.022;2023-06-19T06:04:09;149611.41;;;21.70;62.70
5780;BME280;2916;49.798;10.022;2023-06-19T06:06:36;149668.88;;;21.93;62.33
5780;BME280;2916;49.798;10.022;2023-06-19T06:09:03;149671.38;;;21.94;62.47
5780;BME280;2916;49.798;10.022;2023-06-19T06:11:30;149673.88;;;21.95;62.09
5780;BME280;2916;49.798;10.022;2023-06-19T06:13:59;149700.13;;;22.06;62.39
5780;BME280;2916;49.798;10.022;2023-06-19T06:16:26;149740.19;;;22.22;62.20
5780;BME280;2916;49.798;10.022;2023-06-19T06:18:54;149797.69;;;22.46;62.04
5780;BME280;2916;49.798;10.022;2023-06-19T06:21:21;149833.97;;;22.61;60.86
5780;BME280;2916;49.798;10.022;2023-06-19T06:23:48;149853.97;;;22.69;61.48
5780;BME280;2916;49.798;10.022;2023-06-19T06:26:15;149881.50;;;22.80;61.60
5780;BME280;2916;49.798;10.022;2023-06-19T06:28:42;149970.34;;;23.16;60.95
5780;BME280;2916;49.798;10.022;2023-06-19T06:31:11;150099.25;;;23.69;60.12
5780;BME280;2916;49.798;10.022;2023-06-19T06:33:38;150084.22;;;23.63;58.30
5780;BME280;2916;49.798;10.022;2023-06-19T06:36:05;150054.19;;;23.50;57.67
5780;BME280;2916;49.798;10.022;2023-06-19T06:38:33;150290.78;;;24.47;57.54
5780;BME280;2916;49.798;10.022;2023-06-19T06:41:00;150218.16;;;24.17;56.60
5780;BME280;2916;49.798;10.022;2023-06-19T06:43:27;150206.84;;;24.13;57.65
5780;BME280;2916;49.798;10.022;2023-06-19T06:45:54;150223.16;;;24.19;57.82
5780;BME280;2916;49.798;10.022;2023-06-19T06:48:23;150338.38;;;24.66;57.50
5780;BME280;2916;49.798;10.022;2023-06-19T06:50:50;150409.72;;;24.95;56.62
5780;BME280;2916;49.798;10.022;2023-06-19T06:53:18;150358.41;;;24.74;56.36
5780;BME280;2916;49.798;10.022;2023-06-19T06:55:45;150297.06;;;24.49;57.04
5780;BME280;2916;49.798;10.022;2023-06-19T06:58:12;150354.66;;;24.73;56.56
5780;BME280;2916;49.798;10.022;2023-06-19T07:00:40;150370.91;;;24.80;57.27
5780;BME280;2916;49.798;10.022;2023-06-19T07:03:07;150422.28;;;25.01;57.30
5780;BME280;2916;49.798;10.022;2023-06-19T07:05:36;150474.91;;;25.22;56.18
5780;BME280;2916;49.798;10.022;2023-06-19T07:08:03;150499.97;;;25.32;56.83
5780;BME280;2916;49.798;10.022;2023-06-19T07:10:31;150454.88;;;25.14;55.78
5780;BME280;2916;49.798;10.022;2023-06-19T07:12:58;150512.47;;;25.37;56.14
5780;BME280;2916;49.798;10.022;2023-06-19T07:15:25;150454.88;;;25.14;56.10
5780;BME280;2916;49.798;10.022;2023-06-19T07:17:53;150482.41;;;25.25;55.28
5780;BME280;2916;49.798;10.022;2023-06-19T07:20:20;150524.97;;;25.42;55.69
5780;BME280;2916;49.798;10.022;2023-06-19T07:22:51;150570.09;;;25.61;54.32
5780;BME280;2916;49.798;10.022;2023-06-19T07:25:19;150597.66;;;25.72;54.25
5780;BME280;2916;49.798;10.022;2023-06-19T07:27:50;150607.69;;;25.76;53.78
5780;BME280;2916;49.798;10.022;2023-06-19T07:30:17;150520.00;;;25.40;53.92
5780;BME280;2916;49.798;10.022;2023-06-19T07:32:47;150583.91;;;25.66;53.88
5780;BME280;2916;49.798;10.022;2023-06-19T07:35:14;150656.59;;;25.96;53.51
5780;BME280;2916;49.798;10.022;2023-06-19T07:37:41;150642.81;;;25.90;53.82
5780;BME280;2916;49.798;10.022;2023-06-19T07:40:11;150546.31;;;25.51;54.19
5780;BME280;2916;49.798;10.022;2023-06-19T07:42:39;150585.16;;;25.67;54.62
5780;BME280;2916;49.798;10.022;2023-06-19T07:45:07;150593.91;;;25.70;54.42
5780;BME280;2916;49.798;10.022;2023-06-19T07:47:35;150620.25;;;25.81;54.92
5780;BME280;2916;49.798;10.022;2023-06-19T07:50:03;150582.59;;;25.66;55.73
5780;BME280;2916;49.798;10.022;2023-06-19T07:52:30;150497.47;;;25.31;56.49
5780;BME280;2916;49.798;10.022;2023-06-19T07:54:58;150471.16;;;25.20;56.45
5780;BME280;2916;49.798;10.022;2023-06-19T07:57:27;150552.56;;;25.54;56.00
5780;BME280;2916;49.798;10.022;2023-06-19T07:59:55;150591.38;;;25.69;55.20
5780;BME280;2916;49.798;10.022;2023-06-19T08:02:22;150556.34;;;25.55;56.29
5780;BME280;2916;49.798;10.022;2023-06-19T08:04:49;150670.38;;;26.02;56.09
5780;BME280;2916;49.798;10.022;2023-06-19T08:07:17;150669.09;;;26.01;55.39
5780;BME280;2916;49.798;10.022;2023-06-19T08:09:44;150662.88;;;25.99;55.52
5780;BME280;2916;49.798;10.022;2023-06-19T08:12:11;150711.72;;;26.18;55.19
5780;BME280;2916;49.798;10.022;2023-06-19T08:14:40;150720.50;;;26.22;55.02
5780;BME280;2916;49.798;10.022;2023-06-19T08:17:07;150818.28;;;26.62;54.13
5780;BME280;2916;49.798;10.022;2023-06-19T08:19:34;150814.50;;;26.60;54.46
5780;BME280;2916;49.798;10.022;2023-06-19T08:22:01;150837.09;;;26.70;54.03
5780;BME280;2916;49.798;10.022;2023-06-19T08:24:29;150845.88;;;26.73;54.11
5780;BME280;2916;49.798;10.022;2023-06-19T08:26:56;150868.41;;;26.82;53.86
5780;BME280;2916;49.798;10.022;2023-06-19T08:29:24;150798.25;;;26.54;54.54
5780;BME280;2916;49.798;10.022;2023-06-19T08:31:52;150808.28;;;26.58;55.00
5780;BME280;2916;49.798;10.022;2023-06-19T08:34:20;150788.22;;;26.50;54.82
5780;BME280;2916;49.798;10.022;2023-06-19T08:36:47;150830.81;;;26.67;54.59
5780;BME280;2916;49.798;10.022;2023-06-19T08:39:14;150896.00;;;26.93;54.06
5780;BME280;2916;49.798;10.022;2023-06-19T08:41:42;150986.31;;;27.30;52.85
5780;BME280;2916;49.798;10.022;2023-06-19T08:44:09;150997.56;;;27.35;53.08
5780;BME280;2916;49.798;10.022;2023-06-19T08:46:37;151031.44;;;27.49;52.72
5780;BME280;2916;49.798;10.022;2023-06-19T08:49:08;150941.19;;;27.12;53.72
5780;BME280;2916;49.798;10.022;2023-06-19T08:51:36;150943.69;;;27.13;54.02
5780;BME280;2916;49.798;10.022;2023-06-19T08:54:06;150885.97;;;26.89;54.17
5780;BME280;2916;49.798;10.022;2023-06-19T08:56:35;150934.88;;;27.09;54.20
5780;BME280;2916;49.798;10.022;2023-06-19T08:59:11;150833.31;;;26.68;54.93
5780;BME280;2916;49.798;10.022;2023-06-19T09:01:38;150829.56;;;26.66;55.49
5780;BME280;2916;49.798;10.022;2023-06-19T09:04:12;151008.91;;;27.39;53.74
5780;BME280;2916;49.798;10.022;2023-06-19T09:06:48;150983.81;;;27.29;53.91
5780;BME280;2916;49.798;10.022;2023-06-19T09:09:15;151066.59;;;27.63;53.70
5780;BME280;2916;49.798;10.022;2023-06-19T09:11:43;151176.97;;;28.08;52.92
5780;BME280;2916;49.798;10.022;2023-06-19T09:14:11;151092.94;;;27.74;52.66
5780;BME280;2916;49.798;10.022;2023-06-19T09:16:40;151031.44;;;27.49;54.04
5780;BME280;2916;49.798;10.022;2023-06-19T09:19:09;151037.75;;;27.51;53.88
5780;BME280;2916;49.798;10.022;2023-06-19T09:21:37;151052.75;;;27.57;54.48
5780;BME280;2916;49.798;10.022;2023-06-19T09:24:08;151076.63;;;27.67;53.94
5780;BME280;2916;49.798;10.022;2023-06-19T09:26:35;151144.38;;;27.95;54.00
5780;BME280;2916;49.798;10.022;2023-06-19T09:29:13;151312.50;;;28.63;52.19
5780;BME280;2916;49.798;10.022;2023-06-19T09:31:42;151492.03;;;29.36;51.20
5780;BME280;2916;49.798;10.022;2023-06-19T09:34:10;151293.69;;;28.55;51.68
5780;BME280;2916;49.798;10.022;2023-06-19T09:36:39;151247.25;;;28.36;52.23
5780;BME280;2916;49.798;10.022;2023-06-19T09:39:06;151178.22;;;28.08;52.88
5780;BME280;2916;49.798;10.022;2023-06-19T09:41:37;151106.75;;;27.79;53.26
5780;BME280;2916;49.798;10.022;2023-06-19T09:44:07;151101.72;;;27.77;53.74
5780;BME280;2916;49.798;10.022;2023-06-19T09:46:44;151139.34;;;27.93;54.01
5780;BME280;2916;49.798;10.022;2023-06-19T09:49:16;151043.97;;;27.54;54.04
5780;BME280;2916;49.798;10.022;2023-06-19T09:51:44;151121.78;;;27.85;54.17
5780;BME280;2916;49.798;10.022;2023-06-19T09:54:15;151318.78;;;28.66;53.30
5780;BME280;2916;49.798;10.022;2023-06-19T09:56:43;151134.34;;;27.91;54.25
5780;BME280;2916;49.798;10.022;2023-06-19T09:59:11;151209.56;;;28.21;53.62
5780;BME280;2916;49.798;10.022;2023-06-19T10:01:39;151116.78;;;27.83;54.47
5780;BME280;2916;49.798;10.022;2023-06-19T10:04:25;151166.94;;;28.04;54.22
5780;BME280;2916;49.798;10.022;2023-06-19T10:06:52;151200.78;;;28.18;53.72
5780;BME280;2916;49.798;10.022;2023-06-19T10:09:23;151395.34;;;28.97;53.49
5780;BME280;2916;49.798;10.022;2023-06-19T10:11:51;151455.59;;;29.21;52.76
5780;BME280;2916;49.798;10.022;2023-06-19T10:14:19;151332.56;;;28.71;51.37
5780;BME280;2916;49.798;10.022;2023-06-19T10:16:46;151387.78;;;28.94;52.34
5780;BME280;2916;49.798;10.022;2023-06-19T10:19:15;151282.41;;;28.51;52.15
5780;BME280;2916;49.798;10.022;2023-06-19T10:21:49;151228.38;;;28.29;53.34
5780;BME280;2916;49.798;10.022;2023-06-19T10:24:18;151299.97;;;28.58;52.45
5780;BME280;2916;49.798;10.022;2023-06-19T10:26:58;151372.72;;;28.87;52.96
5780;BME280;2916;49.798;10.022;2023-06-19T10:29:26;151651.47;;;30.01;50.72
5780;BME280;2916;49.798;10.022;2023-06-19T10:31:54;151772.09;;;30.50;48.94
5780;BME280;2916;49.798;10.022;2023-06-19T10:34:33;151549.81;;;29.59;51.36
5780;BME280;2916;49.798;10.022;2023-06-19T10:37:02;151330.06;;;28.70;52.98
5780;BME280;2916;49.798;10.022;2023-06-19T10:39:30;151532.16;;;29.52;52.60
5780;BME280;2916;49.798;10.022;2023-06-19T10:41:58;151608.81;;;29.83;50.76
5780;BME280;2916;49.798;10.022;2023-06-19T10:44:25;151650.22;;;30.00;51.12
5780;BME280;2916;49.798;10.022;2023-06-19T10:46:53;151567.34;;;29.67;52.11
5780;BME280;2916;49.798;10.022;2023-06-19T10:49:21;151689.19;;;30.16;50.37
5780;BME280;2916;49.798;10.022;2023-06-19T10:51:48;151631.38;;;29.93;51.14
5780;BME280;2916;49.798;10.022;2023-06-19T10:54:17;151598.75;;;29.79;50.28
5780;BME280;2916;49.798;10.022;2023-06-19T10:56:44;151436.78;;;29.14;51.77
5780;BME280;2916;49.798;10.022;2023-06-19T10:59:14;151397.88;;;28.98;51.88
5780;BME280;2916;49.798;10.022;2023-06-19T11:01:44;151355.13;;;28.80;52.15
5780;BME280;2916;49.798;10.022;2023-06-19T11:04:14;151402.88;;;29.00;52.46
5780;BME280;2916;49.798;10.022;2023-06-19T11:06:45;151395.34;;;28.97;52.30
5780;BME280;2916;49.798;10.022;2023-06-19T11:09:13;151572.38;;;29.69;51.28
5780;BME280;2916;49.798;10.022;2023-06-19T11:11:44;151503.31;;;29.41;51.11
5780;BME280;2916;49.798;10.022;2023-06-19T11:14:14;151736.91;;;30.36;50.71
5780;BME280;2916;49.798;10.022;2023-06-19T11:16:44;151808.47;;;30.65;49.63
5780;BME280;2916;49.798;10.022;2023-06-19T11:19:16;151754.50;;;30.43;49.27
5780;BME280;2916;49.798;10.022;2023-06-19T11:21:47;151495.75;;;29.38;50.91
5780;BME280;2916;49.798;10.022;2023-06-19T11:24:16;151554.81;;;29.62;51.03
5780;BME280;2916;49.798;10.022;2023-06-19T11:26:47;151558.53;;;29.63;50.91
5780;BME280;2916;49.798;10.022;2023-06-19T11:29:17;151568.63;;;29.67;50.81
5780;BME280;2916;49.798;10.022;2023-06-19T11:31:46;151719.31;;;30.28;50.31
5780;BME280;2916;49.798;10.022;2023-06-19T11:34:14;151890.19;;;30.98;48.96
5780;BME280;2916;49.798;10.022;2023-06-19T11:36:43;151921.56;;;31.11;47.85
5780;BME280;2916;49.798;10.022;2023-06-19T11:39:13;151657.75;;;30.03;48.42
5780;BME280;2916;49.798;10.022;2023-06-19T11:41:45;151937.91;;;31.17;48.38
5780;BME280;2916;49.798;10.022;2023-06-19T11:44:12;151699.22;;;30.20;48.33
5780;BME280;2916;49.798;10.022;2023-06-19T11:46:39;151760.75;;;30.45;49.45
5780;BME280;2916;49.798;10.022;2023-06-19T11:49:12;152018.34;;;31.50;48.16
5780;BME280;2916;49.798;10.022;2023-06-19T11:51:40;152106.34;;;31.86;47.28
5780;BME280;2916;49.798;10.022;2023-06-19T11:54:09;151945.41;;;31.20;47.55
5780;BME280;2916;49.798;10.022;2023-06-19T11:56:37;152051.00;;;31.63;47.12
5780;BME280;2916;49.798;10.022;2023-06-19T11:59:07;151724.34;;;30.30;48.44
5780;BME280;2916;49.798;10.022;2023-06-19T12:01:36;151862.53;;;30.87;48.59
5780;BME280;2916;49.798;10.022;2023-06-19T12:04:04;151794.66;;;30.59;48.65
5780;BME280;2916;49.798;10.022;2023-06-19T12:06:32;151706.78;;;30.23;49.96
5780;BME280;2916;49.798;10.022;2023-06-19T12:09:01;151960.50;;;31.26;48.74
5780;BME280;2916;49.798;10.022;2023-06-19T12:11:31;152201.88;;;32.24;46.54
5780;BME280;2916;49.798;10.022;2023-06-19T12:13:58;152165.41;;;32.10;45.57
5780;BME280;2916;49.798;10.022;2023-06-19T12:16:26;152312.50;;;32.69;44.28
5780;BME280;2916;49.798;10.022;2023-06-19T12:18:54;152151.59;;;32.04;45.62
5780;BME280;2916;49.798;10.022;2023-06-19T12:21:21;151902.72;;;31.03;46.37
5780;BME280;2916;49.798;10.022;2023-06-19T12:23:48;151995.75;;;31.41;47.29
5780;BME280;2916;49.798;10.022;2023-06-19T12:26:16;152310.00;;;32.68;44.41
5780;BME280;2916;49.798;10.022;2023-06-19T12:28:43;152272.28;;;32.53;43.95
5780;BME280;2916;49.798;10.022;2023-06-19T12:31:10;152369.09;;;32.92;44.09
5780;BME280;2916;49.798;10.022;2023-06-19T12:33:39;152483.56;;;33.39;43.55
5780;BME280;2916;49.798;10.022;2023-06-19T12:36:11;152468.50;;;33.33;42.21
5780;BME280;2916;49.798;10.022;2023-06-19T12:38:39;152486.06;;;33.40;42.65
5780;BME280;2916;49.798;10.022;2023-06-19T12:41:06;152345.22;;;32.83;43.34
5780;BME280;2916;49.798;10.022;2023-06-19T12:43:33;152375.44;;;32.95;43.78
5780;BME280;2916;49.798;10.022;2023-06-19T12:46:01;152139.00;;;31.99;44.67
5780;BME280;2916;49.798;10.022;2023-06-19T12:48:28;152141.56;;;32.00;44.85
5780;BME280;2916;49.798;10.022;2023-06-19T12:50:56;152101.31;;;31.84;44.64
5780;BME280;2916;49.798;10.022;2023-06-19T12:53:24;151983.16;;;31.36;45.01
5780;BME280;2916;49.798;10.022;2023-06-19T12:55:56;151970.59;;;31.31;46.31
5780;BME280;2916;49.798;10.022;2023-06-19T12:58:23;152076.16;;;31.73;45.51
5780;BME280;2916;49.798;10.022;2023-06-19T13:00:51;152091.25;;;31.80;45.93
5780;BME280;2916;49.798;10.022;2023-06-19T13:03:19;152166.66;;;32.10;45.59
5780;BME280;2916;49.798;10.022;2023-06-19T13:05:46;152176.72;;;32.14;45.33